Weather Outlook 10th November 2019 (6 pm)

A weak low-level shear-line dipping southward across our area, could trigger light to moderate showers with isolated thunderstorms across St. Vincent and the Grenadines (SVG) tonight. A few showers are likely during Monday and an approaching tropical wave, with mid-level moisture support could enhance showers with isolated thunderstorms late Tuesday into Wednesday.

Moderate to fresh (25 – 40 km/h) north-easterly breeze could occasionally decrease to moderate (20 – 30 km/h) and gusty conditions are likely near showers.

Gradual reduction to gentle breeze is possible during Wednesday.

Slight to moderate (1.2 – 2.2 m) sea conditions are across SVG, with easterly swells. Northerly swells are possibly on the west coast during Tuesday, becoming north-easterly Tuesday night with swells ranging 1.0m to 1.5m across SVG.

Aviation WX

[Source: ADDS]
METAR
TVSA 251000Z 06006KT 030V090 9999 SCT018 25/23 Q1013 =
TVSA 250500Z 2506/2606 10005KT 9999 SCT018 PROB40 TEMPO 2512/2524 SHRA BKN015 SCT036
TAF
TVSA 250500Z 2506/2606 10005KT 9999 SCT018 PROB40 TEMPO 2512/2524 SHRA BKN015 SCT036 =
SR / SS: 10:31 / 22:02 UTC (Sunrise Sunset 2020-01-25)